Time;durP1;ratioP1;P1;durP2;ratioP2;P2;SDS_P1;SDS_P2;PMS_P1;PMS_P2;Temp;Humidity;BMP_temperature;BMP_pressure;BME280_temperature;BME280_humidity;BME280_pressure;Samples;Min_cycle;Max_cycle;Signal;HPM_P1;HPM_P2
2023/11/30 00:00:16;;;;;;;5.75;3.03;;;23.90;99.90;;;;;;4996238;28;20073;-61
2023/11/30 00:02:42;;;;;;;5.22;2.75;;;23.90;99.90;;;;;;4994818;28;20054;-62
2023/11/30 00:05:08;;;;;;;3.97;2.67;;;23.90;99.90;;;;;;4995294;28;20668;-60
2023/11/30 00:07:35;;;;;;;4.97;2.58;;;23.90;99.90;;;;;;4995992;28;20033;-60
2023/11/30 00:10:01;;;;;;;4.03;2.75;;;23.90;99.90;;;;;;4996436;28;20049;-62
2023/11/30 00:12:27;;;;;;;7.68;2.67;;;23.80;99.90;;;;;;4996050;28;20149;-61
2023/11/30 00:14:53;;;;;;;5.05;2.60;;;23.90;99.90;;;;;;4996329;28;20105;-59
2023/11/30 00:17:19;;;;;;;5.28;2.38;;;23.80;99.90;;;;;;4995618;28;20042;-60
2023/11/30 00:19:44;;;;;;;7.10;3.00;;;23.80;99.90;;;;;;4995688;28;20499;-64
2023/11/30 00:22:10;;;;;;;4.20;3.00;;;23.80;99.90;;;;;;4995895;28;20387;-60
2023/11/30 00:24:36;;;;;;;3.83;2.75;;;23.80;99.90;;;;;;4995784;28;20027;-60
2023/11/30 00:27:02;;;;;;;6.45;2.95;;;23.80;99.90;;;;;;4995650;28;20070;-61
2023/11/30 00:29:28;;;;;;;7.18;3.10;;;23.80;99.90;;;;;;4995762;28;20026;-62
2023/11/30 00:31:53;;;;;;;3.60;2.67;;;23.80;99.90;;;;;;4996159;28;20067;-62
2023/11/30 00:34:19;;;;;;;4.43;3.05;;;23.80;99.90;;;;;;4995430;28;20360;-61
2023/11/30 00:36:45;;;;;;;5.43;2.75;;;23.80;99.90;;;;;;4989141;28;20107;-63
2023/11/30 00:39:11;;;;;;;5.63;2.65;;;23.80;99.90;;;;;;4995017;28;20101;-61
2023/11/30 00:41:36;;;;;;;4.82;3.03;;;23.80;99.90;;;;;;4992920;28;20023;-62
2023/11/30 00:44:02;;;;;;;3.75;2.25;;;23.80;99.90;;;;;;4995661;28;20379;-61
2023/11/30 00:46:28;;;;;;;3.63;2.60;;;23.80;99.90;;;;;;4995570;28;20035;-61
2023/11/30 00:48:54;;;;;;;5.15;2.83;;;23.80;99.90;;;;;;4995696;28;20077;-64
2023/11/30 00:51:19;;;;;;;5.25;2.55;;;23.80;99.90;;;;;;4995453;28;20508;-63
2023/11/30 00:53:45;;;;;;;3.88;3.08;;;23.80;99.90;;;;;;4995430;28;20821;-63
2023/11/30 00:56:11;;;;;;;4.60;2.40;;;23.80;99.90;;;;;;4995471;28;20430;-63
2023/11/30 00:58:37;;;;;;;3.78;2.03;;;23.80;99.90;;;;;;4995510;28;20030;-63
2023/11/30 01:01:04;;;;;;;4.35;2.78;;;23.80;99.90;;;;;;5007538;23;20065;-46
2023/11/30 01:03:29;;;;;;;4.38;2.75;;;23.80;99.90;;;;;;4994969;28;20030;-47
2023/11/30 01:05:55;;;;;;;5.93;2.50;;;23.80;99.90;;;;;;4995536;28;20049;-45
2023/11/30 01:08:21;;;;;;;3.20;2.63;;;23.80;99.90;;;;;;4995030;28;20014;-46
2023/11/30 01:10:47;;;;;;;3.00;2.30;;;23.80;99.90;;;;;;4994130;28;20026;-46
2023/11/30 01:13:13;;;;;;;4.05;2.50;;;23.80;99.90;;;;;;4975255;28;20498;-46
2023/11/30 01:15:38;;;;;;;2.65;2.42;;;23.80;99.90;;;;;;4975495;28;20038;-47
2023/11/30 01:18:04;;;;;;;5.78;2.75;;;23.80;99.90;;;;;;4975682;28;20110;-48
2023/11/30 01:20:32;;;;;;;3.42;2.53;;;23.80;99.90;;;;;;4974731;28;20023;-46
2023/11/30 01:22:58;;;;;;;3.35;2.25;;;23.80;99.90;;;;;;4983251;28;20075;-46
2023/11/30 01:25:23;;;;;;;4.85;2.67;;;23.80;99.90;;;;;;4994815;28;20113;-47
2023/11/30 01:27:51;;;;;;;3.95;2.47;;;23.80;99.90;;;;;;4994911;28;20030;-47
2023/11/30 01:30:18;;;;;;;4.15;2.60;;;23.80;99.90;;;;;;4994612;28;20463;-47
2023/11/30 01:32:44;;;;;;;4.70;2.25;;;23.80;99.90;;;;;;4994749;28;20435;-46
2023/11/30 01:35:10;;;;;;;4.20;2.60;;;23.80;99.90;;;;;;4994778;28;20023;-46
2023/11/30 01:37:38;;;;;;;5.13;2.70;;;23.80;99.90;;;;;;4994657;28;20160;-47
2023/11/30 01:40:08;;;;;;;3.88;2.85;;;23.80;99.90;;;;;;4993537;28;20025;-46
2023/11/30 01:42:34;;;;;;;3.67;2.50;;;23.80;99.90;;;;;;4994362;28;20478;-46
2023/11/30 01:45:00;;;;;;;4.88;2.67;;;23.80;99.90;;;;;;4994590;28;20024;-48
2023/11/30 01:47:26;;;;;;;6.53;2.60;;;23.80;99.90;;;;;;4994028;28;20109;-47
2023/11/30 01:49:52;;;;;;;2.97;2.13;;;23.80;99.90;;;;;;4994620;28;20026;-46
2023/11/30 01:52:18;;;;;;;4.70;2.50;;;23.80;99.90;;;;;;4994234;28;20022;-46
2023/11/30 01:54:44;;;;;;;4.90;2.60;;;23.70;99.90;;;;;;4994617;28;20022;-47
2023/11/30 01:57:11;;;;;;;4.28;2.20;;;23.70;99.90;;;;;;4994546;28;20104;-47
2023/11/30 01:59:37;;;;;;;5.18;2.20;;;23.70;99.90;;;;;;4994236;28;20022;-47
2023/11/30 02:02:03;;;;;;;3.38;2.13;;;23.70;99.90;;;;;;5006151;23;20415;-47
2023/11/30 02:04:32;;;;;;;4.00;1.83;;;23.70;99.90;;;;;;4993877;28;20034;-46
2023/11/30 02:06:58;;;;;;;2.50;2.30;;;23.70;99.90;;;;;;4993626;28;20078;-46
2023/11/30 02:09:24;;;;;;;3.08;1.90;;;23.70;99.90;;;;;;4993779;28;20050;-47
2023/11/30 02:11:50;;;;;;;2.92;2.03;;;23.70;99.90;;;;;;4993969;28;20383;-48
2023/11/30 02:14:17;;;;;;;4.70;2.30;;;23.70;99.90;;;;;;4994010;28;20030;-48
2023/11/30 02:16:43;;;;;;;5.55;2.17;;;23.70;99.90;;;;;;4994242;28;20417;-47
2023/11/30 02:19:09;;;;;;;4.03;2.10;;;23.70;99.90;;;;;;4993693;28;20085;-46
2023/11/30 02:21:35;;;;;;;3.67;2.22;;;23.70;99.90;;;;;;4993874;28;20034;-48
2023/11/30 02:24:02;;;;;;;2.90;1.92;;;23.60;99.90;;;;;;4993988;28;20080;-48
2023/11/30 02:26:27;;;;;;;3.20;2.22;;;23.60;99.90;;;;;;4992996;28;20446;-47
2023/11/30 02:28:53;;;;;;;2.17;1.98;;;23.60;99.90;;;;;;4993052;28;20026;-48
2023/11/30 02:31:19;;;;;;;5.97;2.15;;;23.60;99.90;;;;;;4993860;28;20026;-46
2023/11/30 02:33:45;;;;;;;2.88;1.85;;;23.60;99.90;;;;;;4993485;28;20041;-46
2023/11/30 02:36:12;;;;;;;4.03;1.98;;;23.60;99.90;;;;;;4993808;28;20491;-46
2023/11/30 02:38:38;;;;;;;4.05;2.63;;;23.60;99.90;;;;;;5008876;28;20470;-46
2023/11/30 02:41:04;;;;;;;3.70;2.13;;;23.60;99.90;;;;;;4993317;28;20109;-46
2023/11/30 02:43:29;;;;;;;4.18;2.10;;;23.60;99.90;;;;;;4993596;28;20023;-45
2023/11/30 02:45:56;;;;;;;3.63;2.10;;;23.60;99.90;;;;;;4993481;28;20045;-46
2023/11/30 02:48:21;;;;;;;2.15;1.85;;;23.60;99.90;;;;;;4993532;28;20023;-46
2023/11/30 02:50:47;;;;;;;3.53;2.45;;;23.60;99.90;;;;;;4993044;28;20382;-49
2023/11/30 02:53:13;;;;;;;2.17;1.92;;;23.60;99.90;;;;;;4988864;28;20029;-48
2023/11/30 02:55:39;;;;;;;4.70;1.83;;;23.60;99.90;;;;;;4998823;28;20023;-48
2023/11/30 02:58:04;;;;;;;3.70;2.20;;;23.60;99.90;;;;;;4993077;28;20032;-47
2023/11/30 03:00:31;;;;;;;2.80;1.83;;;23.60;99.90;;;;;;5005643;23;20010;-61
2023/11/30 03:02:56;;;;;;;4.70;1.92;;;23.60;99.90;;;;;;4992507;28;20034;-61
2023/11/30 03:05:22;;;;;;;4.80;2.42;;;23.60;99.90;;;;;;4992935;28;20023;-64
2023/11/30 03:07:48;;;;;;;4.35;2.75;;;23.50;99.90;;;;;;4986451;28;20039;-64
2023/11/30 03:10:15;;;;;;;4.53;1.90;;;23.50;99.90;;;;;;4985590;28;20105;-66
2023/11/30 03:12:41;;;;;;;3.00;2.20;;;23.50;99.90;;;;;;4993253;28;20034;-66
2023/11/30 03:15:07;;;;;;;3.50;2.63;;;23.50;99.90;;;;;;4992612;28;20022;-63
2023/11/30 03:17:33;;;;;;;3.90;1.95;;;23.50;99.90;;;;;;4992873;28;20105;-64
2023/11/30 03:19:59;;;;;;;4.28;2.25;;;23.50;99.90;;;;;;4992733;28;20475;-64
2023/11/30 03:22:25;;;;;;;3.25;1.90;;;23.50;99.90;;;;;;4992610;28;20490;-64
2023/11/30 03:24:50;;;;;;;3.80;2.08;;;23.50;99.90;;;;;;4992484;28;20072;-64
2023/11/30 03:27:16;;;;;;;5.05;2.40;;;23.50;99.90;;;;;;4992209;28;20113;-64
2023/11/30 03:29:42;;;;;;;6.88;2.40;;;23.50;99.90;;;;;;4991730;28;20029;-64
2023/11/30 03:32:08;;;;;;;4.28;2.70;;;23.50;99.90;;;;;;4992444;28;20023;-65
2023/11/30 03:34:33;;;;;;;3.40;1.98;;;23.50;99.90;;;;;;4992737;28;20510;-65
2023/11/30 03:36:59;;;;;;;4.00;1.98;;;23.50;99.90;;;;;;4992672;28;20050;-64
2023/11/30 03:39:25;;;;;;;5.00;1.95;;;23.50;99.90;;;;;;4983687;28;20014;-64
2023/11/30 03:41:51;;;;;;;4.15;2.40;;;23.40;99.90;;;;;;4987111;28;20026;-64
2023/11/30 03:44:16;;;;;;;3.17;1.88;;;23.40;99.90;;;;;;4992643;28;20023;-64
2023/11/30 03:46:42;;;;;;;4.75;2.28;;;23.40;99.90;;;;;;4992490;28;20391;-64
2023/11/30 03:49:08;;;;;;;2.65;1.98;;;23.40;99.90;;;;;;4992718;28;20105;-66
2023/11/30 03:51:34;;;;;;;4.57;2.60;;;23.40;99.90;;;;;;4992442;28;20023;-64
2023/11/30 03:53:59;;;;;;;4.88;2.45;;;23.40;99.90;;;;;;4992635;28;20538;-65
2023/11/30 03:56:25;;;;;;;4.35;2.03;;;23.40;99.90;;;;;;4992365;28;20050;-66
2023/11/30 03:58:51;;;;;;;2.75;2.28;;;23.40;99.90;;;;;;4992596;28;20030;-64
2023/11/30 04:01:23;;;;;;;4.65;1.90;;;23.40;99.90;;;;;;4992938;28;20054;-64
2023/11/30 04:03:50;;;;;;;4.32;2.38;;;23.40;99.90;;;;;;4992472;28;20062;-65
2023/11/30 04:06:22;;;;;;;2.72;1.90;;;23.40;99.90;;;;;;4992322;28;20105;-64
2023/11/30 04:08:52;;;;;;;4.03;2.30;;;23.40;99.90;;;;;;4992413;28;20023;-65
2023/11/30 04:11:18;;;;;;;3.88;2.30;;;23.40;99.90;;;;;;4992113;28;20023;-65
2023/11/30 04:13:45;;;;;;;4.30;2.00;;;23.40;99.90;;;;;;4992020;28;20058;-65
2023/11/30 04:16:14;;;;;;;4.95;3.20;;;23.40;99.90;;;;;;4991778;28;20077;-64
2023/11/30 04:18:40;;;;;;;2.78;2.05;;;23.30;99.90;;;;;;4990486;28;20022;-64
2023/11/30 04:21:07;;;;;;;4.95;2.42;;;23.30;99.90;;;;;;4990843;28;20387;-63
2023/11/30 04:23:33;;;;;;;5.28;2.03;;;23.30;99.90;;;;;;4991814;28;20034;-64
2023/11/30 04:25:59;;;;;;;2.95;2.05;;;23.30;99.90;;;;;;4992405;28;20034;-64
2023/11/30 04:28:25;;;;;;;3.47;2.80;;;23.30;99.90;;;;;;4992379;28;20038;-65
2023/11/30 04:30:52;;;;;;;5.30;2.17;;;23.30;99.90;;;;;;4992530;28;20053;-64
2023/11/30 04:33:18;;;;;;;5.75;2.30;;;23.30;99.90;;;;;;4992678;28;20022;-64
2023/11/30 04:35:44;;;;;;;2.83;1.80;;;23.30;99.90;;;;;;4992368;28;20033;-64
2023/11/30 04:38:09;;;;;;;3.63;1.92;;;23.30;99.90;;;;;;5007512;28;20054;-64
2023/11/30 04:40:35;;;;;;;3.75;2.28;;;23.30;99.90;;;;;;4992314;28;20030;-64
2023/11/30 04:43:01;;;;;;;3.03;1.98;;;23.30;99.90;;;;;;4993530;28;20026;-64
2023/11/30 04:45:27;;;;;;;4.93;2.30;;;23.30;99.90;;;;;;4996227;28;20432;-66
2023/11/30 04:47:52;;;;;;;3.13;2.10;;;23.30;99.90;;;;;;4996391;28;20030;-64
2023/11/30 04:50:18;;;;;;;3.50;2.08;;;23.20;99.90;;;;;;4996195;28;20027;-64
2023/11/30 04:52:44;;;;;;;2.83;1.90;;;23.20;99.90;;;;;;4994549;28;20035;-64
2023/11/30 04:55:10;;;;;;;2.22;1.90;;;23.20;99.90;;;;;;4994771;28;20026;-64
2023/11/30 04:57:35;;;;;;;2.83;2.05;;;23.20;99.90;;;;;;4993762;28;20057;-64
2023/11/30 05:00:02;;;;;;;3.30;1.95;;;23.20;99.90;;;;;;4995479;28;20022;-64
2023/11/30 05:02:28;;;;;;;6.47;2.07;;;23.20;99.90;;;;;;4995285;28;20113;-64
2023/11/30 05:04:54;;;;;;;2.67;2.17;;;23.20;99.90;;;;;;4995549;28;20260;-64
2023/11/30 05:07:19;;;;;;;3.72;1.98;;;23.20;99.90;;;;;;4995604;28;20110;-64
2023/11/30 05:09:45;;;;;;;4.80;2.22;;;23.20;99.90;;;;;;4995268;28;20022;-64
2023/11/30 05:12:11;;;;;;;4.93;2.47;;;23.20;99.90;;;;;;4995628;28;20026;-64
2023/11/30 05:14:37;;;;;;;3.58;2.08;;;23.10;99.90;;;;;;4994147;28;20022;-63
2023/11/30 05:17:02;;;;;;;2.63;1.83;;;23.10;99.90;;;;;;5010584;28;20042;-64
2023/11/30 05:19:28;;;;;;;5.80;2.13;;;23.10;99.90;;;;;;4995357;28;20065;-64
2023/11/30 05:21:54;;;;;;;15.88;2.60;;;23.10;99.90;;;;;;4995360;28;20593;-64
2023/11/30 05:24:20;;;;;;;3.17;1.98;;;23.10;99.90;;;;;;4995533;28;20479;-64
2023/11/30 05:26:45;;;;;;;4.05;2.22;;;23.10;99.90;;;;;;4995140;28;20117;-65
2023/11/30 05:29:12;;;;;;;6.65;2.30;;;23.10;99.90;;;;;;4995377;28;20105;-65
2023/11/30 05:31:37;;;;;;;3.08;2.08;;;23.10;99.90;;;;;;4995158;28;20101;-65
2023/11/30 05:34:03;;;;;;;6.30;2.58;;;23.10;99.90;;;;;;4995035;28;20059;-65
2023/11/30 05:36:29;;;;;;;3.45;2.40;;;23.10;99.90;;;;;;4995185;28;20098;-65
2023/11/30 05:38:55;;;;;;;6.05;2.45;;;23.10;99.90;;;;;;4994973;28;20041;-65
2023/11/30 05:41:21;;;;;;;1.95;1.67;;;23.10;99.90;;;;;;4995324;28;20073;-65
2023/11/30 05:43:47;;;;;;;4.30;2.33;;;23.10;99.90;;;;;;4993714;28;20386;-65
2023/11/30 05:46:13;;;;;;;6.05;2.30;;;23.00;99.90;;;;;;4994848;28;20114;-65
2023/11/30 05:48:39;;;;;;;3.33;2.00;;;23.10;99.90;;;;;;4994811;28;20049;-65
2023/11/30 05:51:05;;;;;;;3.60;2.38;;;23.00;99.90;;;;;;4994855;28;20081;-65
2023/11/30 05:53:30;;;;;;;3.25;1.80;;;23.00;99.90;;;;;;4994631;28;20038;-65
2023/11/30 05:55:56;;;;;;;3.75;2.30;;;23.00;99.90;;;;;;4993749;28;20023;-65
2023/11/30 05:58:22;;;;;;;5.60;2.88;;;23.00;99.90;;;;;;4994955;28;20022;-65
2023/11/30 06:00:48;;;;;;;5.57;2.47;;;23.00;99.90;;;;;;4994451;28;20387;-66
2023/11/30 06:03:14;;;;;;;3.88;2.50;;;23.00;99.90;;;;;;4994525;28;20030;-65
2023/11/30 06:05:39;;;;;;;3.85;2.42;;;23.00;99.90;;;;;;4994452;28;20371;-64
2023/11/30 06:08:05;;;;;;;5.70;2.45;;;23.00;99.90;;;;;;4994559;28;20038;-65
2023/11/30 06:10:31;;;;;;;3.60;2.20;;;23.00;99.90;;;;;;4994564;28;20015;-66
2023/11/30 06:12:57;;;;;;;4.38;2.22;;;23.00;99.90;;;;;;4994379;28;20027;-65
2023/11/30 06:15:22;;;;;;;5.35;2.53;;;23.00;99.90;;;;;;4994619;28;20018;-65
2023/11/30 06:17:48;;;;;;;5.28;2.88;;;22.90;99.90;;;;;;4994256;28;20042;-65
2023/11/30 06:20:14;;;;;;;5.50;2.83;;;22.90;99.90;;;;;;4994217;28;20019;-65
2023/11/30 06:22:40;;;;;;;4.22;2.13;;;22.90;99.90;;;;;;4994228;28;20497;-66
2023/11/30 06:25:07;;;;;;;3.50;2.70;;;22.90;99.90;;;;;;4994171;28;20101;-65
2023/11/30 06:27:33;;;;;;;6.20;2.60;;;22.90;99.90;;;;;;4993983;28;20035;-65
2023/11/30 06:29:59;;;;;;;4.00;2.33;;;22.90;99.90;;;;;;4994102;28;20026;-65
2023/11/30 06:32:25;;;;;;;4.05;2.35;;;22.90;99.90;;;;;;4994253;28;20042;-65
2023/11/30 06:34:51;;;;;;;5.03;2.45;;;22.90;99.90;;;;;;4994145;28;20479;-65
2023/11/30 06:37:16;;;;;;;4.90;2.42;;;22.90;99.90;;;;;;4994009;28;20030;-64
2023/11/30 06:39:42;;;;;;;5.65;2.60;;;22.90;99.90;;;;;;4993892;28;20026;-64
2023/11/30 06:42:08;;;;;;;5.63;2.88;;;22.90;99.90;;;;;;4992360;28;20371;-64
2023/11/30 06:44:34;;;;;;;3.83;2.38;;;22.90;99.90;;;;;;4993743;28;20070;-66
2023/11/30 06:47:00;;;;;;;5.28;3.22;;;22.90;99.90;;;;;;4992238;28;20423;-63
2023/11/30 06:49:25;;;;;;;5.50;2.47;;;22.90;99.90;;;;;;4993883;28;20081;-62
2023/11/30 06:51:52;;;;;;;3.83;2.75;;;22.90;99.90;;;;;;4993760;28;20113;-66
2023/11/30 06:54:18;;;;;;;4.28;2.80;;;22.80;99.90;;;;;;4993551;28;20026;-64
2023/11/30 06:56:43;;;;;;;4.28;2.85;;;22.80;99.90;;;;;;4993537;28;20030;-64
2023/11/30 06:59:09;;;;;;;3.78;2.80;;;22.80;99.90;;;;;;4993567;28;20030;-64
2023/11/30 07:01:36;;;;;;;4.53;2.45;;;22.80;99.90;;;;;;4993230;28;20133;-66
2023/11/30 07:04:02;;;;;;;5.67;2.70;;;22.80;99.90;;;;;;4993483;28;20471;-63
2023/11/30 07:06:30;;;;;;;5.10;3.20;;;22.80;99.90;;;;;;4992906;28;20038;-63
2023/11/30 07:08:55;;;;;;;;;;;22.80;99.90;;;;;;4994085;28;20026;-63
2023/11/30 07:11:21;;;;;;;5.88;2.78;;;22.80;99.90;;;;;;4993363;28;19906;-65
2023/11/30 07:13:47;;;;;;;5.40;3.20;;;22.80;99.90;;;;;;4993239;28;20065;-64
2023/11/30 07:16:13;;;;;;;6.85;3.15;;;22.80;99.90;;;;;;4993204;28;20029;-64
2023/11/30 07:18:40;;;;;;;4.38;2.60;;;22.80;99.90;;;;;;4993286;28;20097;-65
2023/11/30 07:21:13;;;;;;;4.78;3.20;;;22.80;99.90;;;;;;4993197;28;20435;-65
2023/11/30 07:23:38;;;;;;;4.22;2.60;;;22.80;99.90;;;;;;4993149;28;20114;-65
2023/11/30 07:26:14;;;;;;;4.05;2.92;;;22.80;99.90;;;;;;4993010;28;20113;-65
2023/11/30 07:28:40;;;;;;;5.78;3.10;;;22.80;99.90;;;;;;4992992;28;20026;-64
2023/11/30 07:31:06;;;;;;;3.85;2.50;;;22.80;99.90;;;;;;4993046;28;20113;-65
2023/11/30 07:33:34;;;;;;;5.18;2.78;;;22.80;99.90;;;;;;4993105;28;20050;-65
2023/11/30 07:36:00;;;;;;;4.28;2.90;;;22.80;99.90;;;;;;4993113;28;20097;-66
2023/11/30 07:38:26;;;;;;;5.38;3.10;;;22.80;99.90;;;;;;4993006;28;20053;-66
2023/11/30 07:40:52;;;;;;;5.78;3.08;;;22.80;99.90;;;;;;4991514;28;20049;-65
2023/11/30 07:43:17;;;;;;;4.75;3.13;;;22.80;99.90;;;;;;4992713;28;20030;-66
2023/11/30 07:45:43;;;;;;;4.75;3.10;;;22.80;99.90;;;;;;4992748;28;20098;-66
2023/11/30 07:48:09;;;;;;;5.55;2.75;;;22.80;99.90;;;;;;4992817;28;20383;-66
2023/11/30 07:50:35;;;;;;;5.22;2.70;;;22.80;99.90;;;;;;4992571;28;20026;-65
2023/11/30 07:53:04;;;;;;;4.60;3.05;;;22.80;99.90;;;;;;4992679;28;20117;-65
2023/11/30 07:55:29;;;;;;;4.93;3.20;;;22.80;99.90;;;;;;4992807;28;20018;-65
2023/11/30 07:57:55;;;;;;;5.53;3.30;;;22.80;99.90;;;;;;4992907;28;20554;-66
2023/11/30 08:00:23;;;;;;;5.68;3.17;;;22.80;99.90;;;;;;4992727;28;20375;-66
2023/11/30 08:02:49;;;;;;;6.18;3.65;;;22.80;99.90;;;;;;4992410;28;20049;-66
2023/11/30 08:05:16;;;;;;;5.00;3.47;;;22.80;99.90;;;;;;4992575;28;20031;-65
2023/11/30 08:07:42;;;;;;;6.53;3.08;;;22.80;99.90;;;;;;4992552;28;20117;-66
2023/11/30 08:10:08;;;;;;;6.13;3.67;;;22.90;99.90;;;;;;4991375;28;20586;-65
2023/11/30 08:12:34;;;;;;;4.18;3.00;;;22.90;99.90;;;;;;4992602;28;20050;-65
2023/11/30 08:15:00;;;;;;;6.30;3.13;;;22.90;99.90;;;;;;4992807;28;20089;-64
2023/11/30 08:17:25;;;;;;;5.68;3.38;;;22.90;99.90;;;;;;4992902;28;20019;-65
2023/11/30 08:19:51;;;;;;;6.88;3.42;;;22.90;99.90;;;;;;4996592;28;20034;-65
2023/11/30 08:22:17;;;;;;;6.38;3.97;;;22.90;99.90;;;;;;4996490;28;20097;-65
2023/11/30 08:24:43;;;;;;;6.15;3.30;;;22.90;99.90;;;;;;4996522;28;20096;-65
2023/11/30 08:27:09;;;;;;;5.45;3.10;;;22.90;99.90;;;;;;4996203;28;20026;-65
2023/11/30 08:29:36;;;;;;;9.57;2.83;;;23.00;99.90;;;;;;4996467;28;20466;-66
2023/11/30 08:32:02;;;;;;;6.63;2.72;;;23.00;99.90;;;;;;4996324;28;20533;-65
2023/11/30 08:34:28;;;;;;;5.47;3.30;;;23.00;99.90;;;;;;4995214;28;20463;-66
2023/11/30 08:36:54;;;;;;;4.70;2.65;;;23.10;99.90;;;;;;4996194;28;20032;-65
2023/11/30 08:39:23;;;;;;;4.40;2.80;;;23.10;99.90;;;;;;4995998;28;20106;-66
2023/11/30 08:41:53;;;;;;;4.00;3.03;;;23.10;99.90;;;;;;5011034;28;20363;-66
2023/11/30 08:44:18;;;;;;;4.68;3.30;;;23.10;99.90;;;;;;4996009;28;20049;-67
2023/11/30 08:46:45;;;;;;;4.63;3.45;;;23.20;99.90;;;;;;4995825;28;20074;-65
2023/11/30 08:49:12;;;;;;;3.42;2.90;;;23.30;99.90;;;;;;4995944;28;20023;-65
2023/11/30 08:51:38;;;;;;;6.20;3.20;;;23.30;99.90;;;;;;4995828;28;20105;-65
2023/11/30 08:54:04;;;;;;;6.88;3.30;;;23.30;99.90;;;;;;4995852;28;20018;-64
2023/11/30 08:56:30;;;;;;;4.35;2.95;;;23.30;99.90;;;;;;4996295;28;20089;-65
2023/11/30 08:58:56;;;;;;;4.53;2.85;;;23.40;99.90;;;;;;4995686;28;20058;-65
2023/11/30 09:01:21;;;;;;;7.50;2.90;;;23.40;99.90;;;;;;4995601;28;20052;-67
2023/11/30 09:03:47;;;;;;;4.63;2.90;;;23.40;99.90;;;;;;4995660;28;20022;-65
2023/11/30 09:06:13;;;;;;;4.20;2.53;;;23.50;99.90;;;;;;5010837;28;20041;-66
2023/11/30 09:08:39;;;;;;;7.85;3.42;;;23.50;99.90;;;;;;4995428;28;20022;-65
2023/11/30 09:11:05;;;;;;;4.53;2.90;;;23.60;99.90;;;;;;4995596;28;20026;-65
2023/11/30 09:13:35;;;;;;;5.75;3.15;;;23.60;99.90;;;;;;4995677;28;20026;-64
2023/11/30 09:16:02;;;;;;;4.43;3.00;;;23.60;99.90;;;;;;4995705;28;20150;-64
2023/11/30 09:18:28;;;;;;;5.57;3.50;;;23.60;99.90;;;;;;4995432;28;20022;-65
2023/11/30 09:20:54;;;;;;;6.10;3.33;;;23.70;99.90;;;;;;4995318;28;20541;-64
2023/11/30 09:23:20;;;;;;;5.93;3.58;;;23.70;99.90;;;;;;4995353;28;20104;-66
2023/11/30 09:25:45;;;;;;;5.22;3.45;;;23.70;99.90;;;;;;4995165;28;20034;-65
2023/11/30 09:28:11;;;;;;;6.75;3.75;;;23.80;99.90;;;;;;4995234;28;20081;-65
2023/11/30 09:30:37;;;;;;;8.98;3.58;;;23.80;99.90;;;;;;4994915;28;20029;-66
2023/11/30 09:33:04;;;;;;;5.18;3.42;;;23.90;99.90;;;;;;5010570;28;20383;-65
2023/11/30 09:35:30;;;;;;;5.78;3.03;;;23.90;99.90;;;;;;4995210;28;20084;-65
2023/11/30 09:37:56;;;;;;;4.50;3.13;;;23.90;99.90;;;;;;4995053;28;20042;-66
2023/11/30 09:40:21;;;;;;;6.95;3.65;;;23.90;99.90;;;;;;4993660;28;20044;-64
2023/11/30 09:42:48;;;;;;;5.82;3.40;;;24.00;99.90;;;;;;4993700;28;20088;-65
2023/11/30 09:45:16;;;;;;;3.58;2.90;;;24.00;99.90;;;;;;4994895;28;20065;-65
2023/11/30 09:47:41;;;;;;;5.13;3.50;;;24.00;99.90;;;;;;4994764;28;20038;-65
2023/11/30 09:50:07;;;;;;;6.18;3.75;;;24.10;99.90;;;;;;4994825;28;20176;-65
2023/11/30 09:52:37;;;;;;;8.18;3.95;;;24.10;99.90;;;;;;4994902;28;20053;-66
2023/11/30 09:55:03;;;;;;;4.10;3.08;;;24.10;99.90;;;;;;4994870;28;20098;-65
2023/11/30 09:57:29;;;;;;;9.18;3.42;;;24.20;99.90;;;;;;4994562;28;20149;-65
2023/11/30 09:59:55;;;;;;;5.35;3.20;;;24.20;99.90;;;;;;4994699;28;20117;-65
2023/11/30 10:02:23;;;;;;;4.65;3.00;;;24.30;99.90;;;;;;4993209;28;20046;-66
2023/11/30 10:04:49;;;;;;;3.92;3.10;;;24.30;99.90;;;;;;4994513;28;20080;-65
2023/11/30 10:07:15;;;;;;;6.53;3.43;;;24.40;99.90;;;;;;4994496;28;20030;-65
2023/11/30 10:09:42;;;;;;;7.07;3.55;;;24.40;99.90;;;;;;4994449;28;20045;-66
2023/11/30 10:12:08;;;;;;;4.00;2.80;;;24.50;99.90;;;;;;4994408;28;20034;-67
2023/11/30 10:14:34;;;;;;;4.40;3.40;;;24.50;99.90;;;;;;4994678;28;20026;-65
2023/11/30 10:17:00;;;;;;;7.13;3.08;;;24.60;99.90;;;;;;4994309;28;20033;-66
2023/11/30 10:19:26;;;;;;;4.60;3.00;;;24.60;99.90;;;;;;4993923;28;20379;-65
2023/11/30 10:21:55;;;;;;;3.85;3.10;;;24.70;99.90;;;;;;4994167;28;20030;-65
2023/11/30 10:24:23;;;;;;;8.00;2.90;;;24.70;99.90;;;;;;4994329;28;20016;-65
2023/11/30 10:26:52;;;;;;;;;;;24.80;99.90;;;;;;4994522;28;20037;-65
2023/11/30 10:29:20;;;;;;;6.35;3.20;;;24.80;99.90;;;;;;4994041;28;20001;-65
2023/11/30 10:31:53;;;;;;;7.63;3.15;;;24.90;99.90;;;;;;4993753;28;20131;-65
2023/11/30 10:34:27;;;;;;;7.10;3.25;;;24.90;99.90;;;;;;4993252;28;20023;-62
2023/11/30 10:36:56;;;;;;;5.47;2.60;;;24.90;99.90;;;;;;4996013;28;20030;-67
2023/11/30 10:39:23;;;;;;;5.25;2.17;;;24.90;99.90;;;;;;4993390;28;20379;-63
2023/11/30 10:41:54;;;;;;;3.65;1.58;;;24.80;99.90;;;;;;4992417;28;20072;-63
2023/11/30 10:44:32;;;;;;;5.38;2.08;;;24.70;99.90;;;;;;4990488;28;20030;-62
2023/11/30 10:47:00;;;;;;;2.63;1.70;;;24.70;99.90;;;;;;4991035;28;20305;-64
2023/11/30 10:49:27;;;;;;;6.00;2.08;;;24.70;99.90;;;;;;4992920;28;20023;-62
2023/11/30 10:52:01;;;;;;;8.27;2.75;;;24.70;99.90;;;;;;4992789;28;20548;-64
2023/11/30 10:54:38;;;;;;;4.25;1.58;;;24.70;99.90;;;;;;4993339;28;20541;-62
2023/11/30 10:57:05;;;;;;;3.33;1.38;;;24.70;99.90;;;;;;4993262;28;20029;-62
2023/11/30 10:59:32;;;;;;;4.07;1.80;;;24.70;99.90;;;;;;4993239;28;20029;-62
2023/11/30 11:01:58;;;;;;;3.20;1.60;;;24.70;99.90;;;;;;4992272;28;20053;-59
2023/11/30 11:04:25;;;;;;;6.50;2.03;;;24.70;99.90;;;;;;4992905;28;20022;-62
2023/11/30 11:07:02;;;;;;;3.83;2.30;;;24.80;99.90;;;;;;4992437;28;20043;-64
2023/11/30 11:09:41;;;;;;;5.20;2.30;;;24.80;99.90;;;;;;4991544;28;20042;-57
2023/11/30 11:12:21;;;;;;;5.80;2.00;;;24.90;99.90;;;;;;4992325;28;20116;-63
2023/11/30 11:14:52;;;;;;;6.47;2.55;;;25.00;99.90;;;;;;4993189;28;20522;-62
2023/11/30 11:17:24;;;;;;;3.75;2.20;;;25.00;99.90;;;;;;4993041;28;20038;-62
2023/11/30 11:19:52;;;;;;;11.73;4.03;;;25.10;99.90;;;;;;4993028;28;20029;-61
2023/11/30 11:22:31;;;;;;;17.77;2.85;;;25.10;99.90;;;;;;4992975;28;20030;-60
2023/11/30 11:24:58;;;;;;;14.60;2.38;;;25.20;99.90;;;;;;4992913;28;20030;-60
2023/11/30 11:27:29;;;;;;;11.15;2.75;;;25.20;99.90;;;;;;4992876;28;20043;-60
2023/11/30 11:30:01;;;;;;;8.88;2.50;;;25.20;99.90;;;;;;4992887;28;20027;-62
2023/11/30 11:32:29;;;;;;;8.35;2.03;;;25.30;99.90;;;;;;4992920;28;20536;-62
2023/11/30 11:34:55;;;;;;;6.50;1.63;;;25.30;99.90;;;;;;4992926;28;20371;-61
2023/11/30 11:37:20;;;;;;;3.10;2.08;;;25.40;99.90;;;;;;4993049;28;20028;-60
2023/11/30 11:39:48;;;;;;;8.73;2.22;;;25.40;99.90;;;;;;4990680;28;20490;-58
2023/11/30 11:42:14;;;;;;;5.63;1.77;;;25.50;99.90;;;;;;4992225;28;20105;-59
2023/11/30 11:44:40;;;;;;;5.75;1.70;;;25.50;99.90;;;;;;4992642;28;20550;-59
2023/11/30 11:47:05;;;;;;;3.22;1.65;;;25.60;99.90;;;;;;4992191;28;20035;-60
2023/11/30 11:49:31;;;;;;;4.18;1.40;;;25.60;99.90;;;;;;4992165;28;20023;-60
2023/11/30 11:51:57;;;;;;;6.28;1.42;;;25.70;99.90;;;;;;4991838;28;20114;-60
2023/11/30 11:54:23;;;;;;;5.20;1.33;;;25.70;99.90;;;;;;4992156;28;20438;-60
2023/11/30 11:56:50;;;;;;;3.53;1.70;;;25.70;99.90;;;;;;4992168;28;20026;-62
2023/11/30 11:59:23;;;;;;;7.78;1.38;;;25.80;99.90;;;;;;4992294;28;20018;-59
2023/11/30 12:01:50;;;;;;;3.92;1.42;;;25.80;99.90;;;;;;4992575;28;20486;-59
2023/11/30 12:04:45;;;;;;;4.00;1.50;;;25.80;99.90;;;;;;4992591;28;20466;-58
2023/11/30 12:07:13;;;;;;;2.60;1.65;;;25.80;99.90;;;;;;4988142;28;20042;-59
2023/11/30 12:09:39;;;;;;;6.53;1.10;;;25.80;99.90;;;;;;4992839;28;20022;-61
2023/11/30 12:12:08;;;;;;;3.65;1.25;;;25.80;99.90;;;;;;4992166;28;20034;-61
2023/11/30 12:14:35;;;;;;;9.18;1.98;;;25.80;99.90;;;;;;4992554;28;20183;-59
2023/11/30 12:17:01;;;;;;;4.43;1.20;;;25.80;99.90;;;;;;4992482;28;20027;-58
2023/11/30 12:19:28;;;;;;;5.45;1.25;;;25.80;99.90;;;;;;4992229;28;20022;-59
2023/11/30 12:21:55;;;;;;;12.33;2.20;;;25.90;99.90;;;;;;4992527;28;20030;-59
2023/11/30 12:24:21;;;;;;;6.28;1.27;;;25.90;99.90;;;;;;4992937;28;20268;-59
2023/11/30 12:26:47;;;;;;;4.95;1.35;;;25.90;99.90;;;;;;4992339;28;20471;-59
2023/11/30 12:29:13;;;;;;;6.03;1.30;;;25.90;99.90;;;;;;4992757;28;20044;-59
2023/11/30 12:31:39;;;;;;;14.13;2.05;;;25.90;99.90;;;;;;4991415;28;20073;-59
2023/11/30 12:34:05;;;;;;;6.95;1.98;;;25.90;99.90;;;;;;4992366;28;20390;-58
2023/11/30 12:36:31;;;;;;;4.88;1.70;;;25.90;99.90;;;;;;4992390;28;20023;-59
2023/11/30 12:38:57;;;;;;;6.38;1.70;;;25.90;99.90;;;;;;4992274;28;20566;-58
2023/11/30 12:41:23;;;;;;;9.10;1.90;;;26.00;99.90;;;;;;4992352;28;20022;-58
2023/11/30 12:43:49;;;;;;;4.00;1.52;;;26.00;99.90;;;;;;4992284;28;20015;-57